Time;durP1;ratioP1;P1;durP2;ratioP2;P2;SDS_P1;SDS_P2;PMS_P1;PMS_P2;Temp;Humidity;BMP_temperature;BMP_pressure;BME280_temperature;BME280_humidity;BME280_pressure;Samples;Min_cycle;Max_cycle;Signal;HPM_P1;HPM_P2
2023/01/27 00:01:33;;;;;;;8.70;4.72;;;0.50;99.90;;;;;;5107779;28;20049;-63
2023/01/27 00:04:04;;;;;;;8.07;4.72;;;0.50;99.90;;;;;;5109476;28;20034;-65
2023/01/27 00:06:35;;;;;;;7.60;4.55;;;0.50;99.90;;;;;;5116649;28;20059;-64
2023/01/27 00:09:06;;;;;;;11.43;4.90;;;0.60;99.90;;;;;;5100109;28;20041;-62
2023/01/27 00:14:30;;;;;;;7.97;4.93;;;0.50;99.90;;;;;;5119002;28;20022;-63
2023/01/27 00:17:01;;;;;;;7.72;4.63;;;0.50;99.90;;;;;;5127972;28;20034;-63
2023/01/27 00:19:32;;;;;;;6.82;4.50;;;0.50;99.90;;;;;;5129486;28;20030;-64
2023/01/27 00:24:58;;;;;;;7.45;4.00;;;0.50;99.90;;;;;;5096017;29;20035;-63
2023/01/27 00:27:31;;;;;;;10.07;5.32;;;0.50;99.90;;;;;;5110127;28;20621;-63
2023/01/27 00:30:05;;;;;;;6.35;4.05;;;0.40;99.90;;;;;;5112290;28;20308;-65
2023/01/27 00:35:28;;;;;;;9.80;4.68;;;0.40;99.90;;;;;;5133439;28;20047;-62
2023/01/27 00:38:00;;;;;;;9.02;4.55;;;0.40;99.90;;;;;;5114976;28;20034;-63
2023/01/27 00:40:34;;;;;;;7.28;5.10;;;0.40;99.90;;;;;;5092787;28;20035;-64
2023/01/27 00:43:05;;;;;;;10.82;4.93;;;0.30;99.90;;;;;;5098892;28;20030;-62
2023/01/27 00:45:48;;;;;;;11.10;4.75;;;0.40;99.90;;;;;;5113441;28;20054;-63
2023/01/27 00:48:19;;;;;;;9.63;5.20;;;0.30;99.90;;;;;;5114571;28;20034;-63
2023/01/27 00:50:52;;;;;;;8.32;4.43;;;0.40;99.90;;;;;;5100951;28;20051;-63
2023/01/27 00:53:26;;;;;;;12.27;4.47;;;0.30;99.90;;;;;;5116410;28;20041;-62
2023/01/27 00:55:57;;;;;;;6.95;4.55;;;0.30;99.90;;;;;;5115873;28;20038;-63
2023/01/27 00:58:29;;;;;;;11.63;4.78;;;0.40;99.90;;;;;;5109817;28;20046;-62
2023/01/27 01:01:02;;;;;;;9.75;4.30;;;0.40;99.90;;;;;;5181530;23;20066;-62
2023/01/27 01:03:34;;;;;;;8.23;4.47;;;0.30;99.90;;;;;;5209961;23;20051;-62
2023/01/27 01:06:16;;;;;;;9.38;5.03;;;0.30;99.90;;;;;;5108357;28;20239;-62
2023/01/27 01:08:47;;;;;;;9.13;4.40;;;0.30;99.90;;;;;;5129379;28;20015;-63
2023/01/27 01:11:25;;;;;;;8.88;4.82;;;0.30;99.90;;;;;;5132592;28;20026;-62
2023/01/27 01:13:56;;;;;;;9.52;4.60;;;0.30;99.90;;;;;;5132825;28;20435;-62
2023/01/27 01:16:30;;;;;;;7.53;4.65;;;0.30;99.90;;;;;;5131064;28;20235;-62
2023/01/27 01:19:01;;;;;;;10.35;4.68;;;0.40;99.90;;;;;;5116276;28;20045;-63
2023/01/27 01:21:36;;;;;;;6.70;3.75;;;0.40;99.90;;;;;;5130384;28;20027;-64
2023/01/27 01:24:07;;;;;;;9.32;5.20;;;0.40;99.90;;;;;;5132267;28;20495;-62
2023/01/27 01:26:38;;;;;;;9.43;4.78;;;0.40;99.90;;;;;;5131768;28;20435;-63
2023/01/27 01:29:10;;;;;;;8.90;5.03;;;0.50;99.90;;;;;;5133615;28;20647;-61
2023/01/27 01:31:41;;;;;;;6.45;3.95;;;0.40;99.90;;;;;;5111569;28;20251;-63
2023/01/27 01:34:12;;;;;;;9.48;4.32;;;0.50;99.90;;;;;;5130773;28;20037;-62
2023/01/27 01:36:44;;;;;;;8.32;4.63;;;0.50;99.90;;;;;;5124652;28;20048;-62
2023/01/27 01:39:18;;;;;;;9.95;4.57;;;0.50;99.90;;;;;;5131000;28;20047;-63
2023/01/27 01:41:49;;;;;;;6.57;4.63;;;0.50;99.90;;;;;;5146502;28;20031;-63
2023/01/27 01:44:29;;;;;;;10.70;4.70;;;0.50;99.90;;;;;;5132979;28;20039;-62
2023/01/27 01:47:00;;;;;;;8.40;4.82;;;0.40;99.90;;;;;;5114282;28;20046;-62
2023/01/27 01:49:41;;;;;;;10.32;5.15;;;0.40;99.90;;;;;;5130849;28;20450;-62
2023/01/27 01:52:18;;;;;;;11.95;5.07;;;0.40;99.90;;;;;;5116224;28;20539;-63
2023/01/27 01:54:52;;;;;;;10.60;4.45;;;0.40;99.90;;;;;;5130869;28;20033;-63
2023/01/27 01:57:36;;;;;;;8.48;5.20;;;0.40;99.90;;;;;;5130638;28;20348;-64
2023/01/27 02:00:10;;;;;;;8.70;4.78;;;0.40;99.90;;;;;;5146607;28;20027;-64
2023/01/27 02:02:41;;;;;;;;;;;0.40;99.90;;;;;;5131955;28;20042;-61
2023/01/27 02:05:18;;;;;;;8.07;4.82;;;0.40;99.90;;;;;;5104339;28;19965;-62
2023/01/27 02:07:59;;;;;;;9.18;4.65;;;0.50;99.90;;;;;;5101325;29;20035;-63
2023/01/27 02:10:35;;;;;;;8.98;4.85;;;0.40;99.90;;;;;;5124691;28;20022;-62
2023/01/27 02:13:06;;;;;;;9.02;5.25;;;0.40;99.90;;;;;;5126364;28;20038;-62
2023/01/27 02:15:40;;;;;;;10.32;6.07;;;0.40;99.90;;;;;;5116732;28;20051;-62
2023/01/27 02:18:11;;;;;;;9.27;5.80;;;0.30;99.90;;;;;;5134438;28;20049;-62
2023/01/27 02:20:48;;;;;;;9.77;5.82;;;0.40;99.90;;;;;;5128892;28;20037;-61
2023/01/27 02:23:19;;;;;;;14.63;6.78;;;0.40;99.90;;;;;;5151948;28;20022;-62
2023/01/27 02:25:56;;;;;;;10.82;4.95;;;0.30;99.90;;;;;;5132025;28;20037;-62
2023/01/27 02:28:29;;;;;;;12.27;6.40;;;0.40;99.90;;;;;;5130057;28;20572;-61
2023/01/27 02:31:04;;;;;;;8.43;5.63;;;0.30;99.90;;;;;;5116354;28;20014;-63
2023/01/27 02:33:37;;;;;;;8.77;5.53;;;0.40;99.90;;;;;;5133848;28;20026;-61
2023/01/27 02:36:13;;;;;;;10.55;5.63;;;0.40;99.90;;;;;;5113781;28;20049;-61
2023/01/27 02:38:54;;;;;;;10.13;5.63;;;0.30;99.90;;;;;;5145428;28;20026;-61
2023/01/27 02:41:37;;;;;;;9.20;5.13;;;0.30;99.90;;;;;;5111102;29;20027;-62
2023/01/27 02:44:08;;;;;;;8.52;5.07;;;0.30;99.90;;;;;;5111684;29;20046;-60
2023/01/27 02:46:40;;;;;;;10.93;5.60;;;0.30;99.90;;;;;;5109634;29;20028;-61
2023/01/27 02:49:12;;;;;;;9.88;4.95;;;0.30;99.90;;;;;;5111971;28;20392;-61
2023/01/27 02:51:43;;;;;;;9.30;5.90;;;0.30;99.90;;;;;;5136767;28;20049;-62
2023/01/27 02:54:14;;;;;;;6.10;4.50;;;0.30;99.90;;;;;;5141451;28;20228;-61
2023/01/27 02:56:48;;;;;;;10.65;5.15;;;0.20;99.90;;;;;;5132809;28;20346;-60
2023/01/27 02:59:19;;;;;;;7.90;4.60;;;0.30;99.90;;;;;;5129560;28;20034;-63
2023/01/27 03:02:02;;;;;;;9.07;5.78;;;0.20;99.90;;;;;;5118508;28;20627;-61
2023/01/27 03:04:37;;;;;;;10.93;5.10;;;0.20;99.90;;;;;;5119044;28;20065;-62
2023/01/27 03:07:08;;;;;;;8.30;4.90;;;0.20;99.90;;;;;;5119355;28;20041;-61
2023/01/27 03:09:45;;;;;;;9.63;5.63;;;0.20;99.90;;;;;;5118228;28;20041;-65
2023/01/27 03:12:19;;;;;;;6.30;4.13;;;0.20;99.90;;;;;;5134913;28;20327;-62
2023/01/27 03:20:30;;;;;;;8.40;5.13;;;0.20;99.90;;;;;;5112892;28;20944;-61
2023/01/27 03:23:03;;;;;;;9.88;4.72;;;0.20;99.90;;;;;;5112174;28;20034;-62
2023/01/27 03:25:35;;;;;;;10.90;4.95;;;0.10;99.90;;;;;;5155792;28;20037;-62
2023/01/27 03:28:12;;;;;;;10.43;5.05;;;0.20;99.90;;;;;;5137172;28;20023;-61
2023/01/27 03:30:43;;;;;;;9.18;4.65;;;0.10;99.90;;;;;;5131407;28;20046;-61
2023/01/27 03:33:17;;;;;;;9.02;5.00;;;0.20;99.90;;;;;;5100337;28;20049;-61
2023/01/27 03:47:14;;;;;;;9.80;5.50;;;0.10;99.90;;;;;;5152537;28;20026;-61
2023/01/27 03:49:48;;;;;;;8.20;4.93;;;0.10;99.90;;;;;;5150928;28;20353;-61
2023/01/27 03:52:19;;;;;;;18.55;5.25;;;0.10;99.90;;;;;;5151748;28;20510;-62
2023/01/27 03:54:50;;;;;;;9.68;5.53;;;0.10;99.90;;;;;;5133937;28;20030;-61
2023/01/27 03:57:21;;;;;;;8.23;4.55;;;0.10;99.90;;;;;;5128412;28;20377;-61
2023/01/27 03:59:53;;;;;;;9.20;5.57;;;0.20;99.90;;;;;;5131635;28;20038;-61
2023/01/27 04:08:11;;;;;;;9.15;4.80;;;0.10;99.90;;;;;;5131215;28;20027;-62
2023/01/27 04:11:53;;;;;;;11.07;5.72;;;0.10;99.90;;;;;;5135280;28;20033;-60
2023/01/27 04:13:35;;;;;;;11.38;5.72;;;0.10;99.90;;;;;;5147751;28;20061;-61
2023/01/27 04:16:06;;;;;;;8.00;4.90;;;0.10;99.90;;;;;;5135202;28;20691;-61
2023/01/27 04:18:38;;;;;;;10.13;5.32;;;0.10;99.90;;;;;;5136696;28;20049;-61
2023/01/27 04:21:09;;;;;;;8.18;4.30;;;0.10;99.90;;;;;;5120639;28;20036;-60
2023/01/27 04:23:40;;;;;;;7.72;5.07;;;0.10;99.90;;;;;;5118821;28;20045;-62
2023/01/27 04:26:16;;;;;;;9.18;5.05;;;0.10;99.90;;;;;;5135634;28;20031;-61
2023/01/27 04:28:48;;;;;;;8.85;4.97;;;0.00;99.90;;;;;;5134379;28;20033;-63
2023/01/27 04:31:20;;;;;;;8.23;5.07;;;0.10;99.90;;;;;;5129652;28;20038;-62
2023/01/27 04:33:51;;;;;;;10.48;5.32;;;0.10;99.90;;;;;;5106853;28;20038;-61
2023/01/27 04:36:24;;;;;;;8.40;4.70;;;0.10;99.90;;;;;;5146406;28;20054;-61
2023/01/27 04:38:57;;;;;;;9.75;4.97;;;0.10;99.90;;;;;;5106318;28;20042;-61
2023/01/27 04:41:28;;;;;;;8.57;5.03;;;0.10;99.90;;;;;;5136636;28;20048;-61
2023/01/27 04:44:05;;;;;;;7.45;4.65;;;0.10;99.90;;;;;;5135646;28;20303;-61
2023/01/27 04:46:37;;;;;;;9.45;4.53;;;0.10;99.90;;;;;;5147026;28;20059;-60
2023/01/27 04:49:11;;;;;;;10.02;5.50;;;0.10;99.90;;;;;;5126995;28;20030;-61
2023/01/27 04:51:45;;;;;;;7.40;4.63;;;0.10;99.90;;;;;;5154048;28;20535;-61
2023/01/27 04:54:16;;;;;;;;;;;0.10;99.90;;;;;;5136822;28;20030;-62
2023/01/27 04:57:02;;;;;;;8.45;5.25;;;0.20;99.90;;;;;;5151035;28;19967;-61
2023/01/27 04:59:33;;;;;;;7.88;4.78;;;0.20;99.90;;;;;;5125221;28;20058;-62
2023/01/27 05:02:04;;;;;;;13.13;5.93;;;0.10;99.90;;;;;;5127542;28;20030;-61
2023/01/27 05:04:35;;;;;;;9.48;5.20;;;0.20;99.90;;;;;;5122139;28;20043;-61
2023/01/27 05:07:08;;;;;;;9.40;5.32;;;0.20;99.90;;;;;;5115783;28;20469;-64
2023/01/27 05:09:41;;;;;;;10.43;5.72;;;0.20;99.90;;;;;;5128226;28;20398;-62
2023/01/27 05:12:14;;;;;;;11.40;5.70;;;0.20;99.90;;;;;;5102423;28;20042;-62
2023/01/27 05:14:48;;;;;;;8.63;4.97;;;0.10;99.90;;;;;;5130234;28;20026;-61
2023/01/27 05:17:26;;;;;;;7.97;4.80;;;0.10;99.90;;;;;;5127492;28;20030;-61
2023/01/27 05:19:59;;;;;;;9.25;5.38;;;0.10;99.90;;;;;;5111050;28;20352;-60
2023/01/27 05:22:34;;;;;;;9.93;5.50;;;0.10;99.90;;;;;;5126422;28;20034;-61
2023/01/27 05:25:05;;;;;;;9.85;5.85;;;0.10;99.90;;;;;;5134177;28;20038;-61
2023/01/27 05:27:36;;;;;;;10.27;5.80;;;0.10;99.90;;;;;;5132238;28;20038;-60
2023/01/27 05:30:08;;;;;;;10.30;5.05;;;0.10;99.90;;;;;;5150338;28;20030;-61
2023/01/27 05:32:39;;;;;;;11.52;5.25;;;0.10;99.90;;;;;;5140802;28;20416;-60
2023/01/27 05:35:11;;;;;;;11.55;5.47;;;0.10;99.90;;;;;;5115550;28;20042;-60
2023/01/27 05:37:44;;;;;;;11.90;5.70;;;0.10;99.90;;;;;;5121942;28;20487;-61
2023/01/27 05:40:15;;;;;;;16.23;7.53;;;0.10;99.90;;;;;;5135771;28;20041;-61
2023/01/27 05:42:46;;;;;;;11.85;6.43;;;0.10;99.90;;;;;;5118745;28;20050;-61
2023/01/27 05:45:18;;;;;;;11.57;6.88;;;0.10;99.90;;;;;;5128390;28;20276;-62
2023/01/27 05:47:52;;;;;;;11.43;5.40;;;0.10;99.90;;;;;;5110831;28;20056;-61
2023/01/27 05:50:23;;;;;;;;;;;0.00;99.90;;;;;;5094067;28;20735;-60
2023/01/27 05:52:55;;;;;;;9.75;6.15;;;0.00;99.90;;;;;;5105827;28;19906;-60
2023/01/27 05:55:37;;;;;;;12.68;6.57;;;0.00;99.90;;;;;;5143598;28;20034;-62
2023/01/27 05:58:08;;;;;;;9.18;5.97;;;0.00;99.90;;;;;;5149746;28;20208;-60
2023/01/27 06:00:45;;;;;;;16.40;5.55;;;0.00;99.90;;;;;;5150237;28;20038;-61
2023/01/27 06:03:19;;;;;;;13.48;6.18;;;0.00;99.90;;;;;;5100194;28;20053;-61
2023/01/27 06:05:57;;;;;;;17.20;6.40;;;0.00;99.90;;;;;;5094066;28;20062;-60
2023/01/27 06:08:28;;;;;;;10.48;6.18;;;0.10;99.90;;;;;;5080759;28;20039;-63
2023/01/27 06:11:00;;;;;;;10.82;6.32;;;0.10;99.90;;;;;;5121293;28;20031;-61
2023/01/27 06:13:34;;;;;;;10.07;5.95;;;0.10;99.90;;;;;;5121779;28;20065;-62
2023/01/27 06:16:08;;;;;;;11.13;5.80;;;0.10;99.90;;;;;;5104618;28;20054;-60
2023/01/27 06:18:45;;;;;;;11.80;6.43;;;0.10;99.90;;;;;;5121240;28;20031;-61
2023/01/27 06:21:20;;;;;;;11.80;5.88;;;0.10;99.90;;;;;;5105479;28;20491;-62
2023/01/27 06:23:52;;;;;;;12.95;6.63;;;0.10;99.90;;;;;;5130860;28;20343;-61
2023/01/27 06:26:24;;;;;;;11.30;5.60;;;0.10;99.90;;;;;;5128997;28;20050;-60
2023/01/27 06:28:56;;;;;;;14.05;6.10;;;0.00;99.90;;;;;;5151262;28;20026;-60
2023/01/27 06:31:29;;;;;;;12.57;6.20;;;0.00;99.90;;;;;;5126749;28;20028;-62
2023/01/27 06:34:01;;;;;;;13.10;6.30;;;0.00;99.90;;;;;;5112769;28;20030;-62
2023/01/27 06:36:32;;;;;;;8.93;5.20;;;0.00;99.90;;;;;;5126596;28;20302;-62
2023/01/27 06:39:06;;;;;;;12.48;6.43;;;0.00;99.90;;;;;;5109122;28;20041;-62
2023/01/27 06:41:37;;;;;;;13.30;7.28;;;0.00;99.90;;;;;;5147675;28;20038;-61
2023/01/27 06:44:08;;;;;;;8.98;5.70;;;0.00;99.90;;;;;;5100435;28;20118;-61
2023/01/27 06:46:44;;;;;;;11.32;5.47;;;0.00;99.90;;;;;;5110763;28;20047;-61
2023/01/27 06:49:15;;;;;;;7.97;5.30;;;0.00;99.90;;;;;;5130577;28;20034;-61
2023/01/27 06:51:49;;;;;;;10.38;6.03;;;0.00;99.90;;;;;;5099996;28;20050;-62
2023/01/27 06:54:22;;;;;;;10.32;5.80;;;0.00;99.90;;;;;;5135311;28;20030;-61
2023/01/27 06:56:54;;;;;;;12.55;6.28;;;0.00;99.90;;;;;;5151394;28;20034;-61
2023/01/27 06:59:26;;;;;;;14.40;7.25;;;0.00;99.90;;;;;;5133340;28;20030;-62
2023/01/27 07:02:00;;;;;;;12.35;7.70;;;0.00;99.90;;;;;;5105098;28;20251;-61
2023/01/27 07:04:31;;;;;;;11.48;7.18;;;0.00;99.90;;;;;;5117473;28;20050;-62
2023/01/27 07:07:05;;;;;;;11.02;6.38;;;0.00;99.90;;;;;;5132278;28;20050;-62
2023/01/27 07:09:36;;;;;;;11.45;5.53;;;0.00;99.90;;;;;;5140718;28;20026;-61
2023/01/27 07:12:07;;;;;;;13.27;6.50;;;0.00;99.90;;;;;;5111269;28;20035;-59
2023/01/27 07:14:41;;;;;;;11.85;5.82;;;0.00;99.90;;;;;;5119202;28;20061;-61
2023/01/27 07:17:12;;;;;;;11.57;5.22;;;0.00;99.90;;;;;;5111466;28;20030;-61
2023/01/27 07:19:43;;;;;;;10.40;5.93;;;0.00;99.90;;;;;;5130736;28;20034;-61
2023/01/27 07:22:14;;;;;;;13.40;7.15;;;0.00;99.90;;;;;;5111356;28;20039;-61
2023/01/27 07:24:45;;;;;;;12.57;5.60;;;0.00;99.90;;;;;;5128269;28;21454;-62
2023/01/27 07:27:17;;;;;;;11.85;6.18;;;0.00;99.90;;;;;;5125693;28;20486;-62
2023/01/27 07:29:51;;;;;;;11.23;5.72;;;0.10;99.90;;;;;;5132965;28;20041;-62
2023/01/27 07:32:22;;;;;;;9.27;5.40;;;0.00;99.90;;;;;;5110498;28;20033;-60
2023/01/27 07:34:54;;;;;;;11.48;6.25;;;0.00;99.90;;;;;;5141650;28;20042;-61
2023/01/27 07:37:27;;;;;;;11.50;6.53;;;0.10;99.90;;;;;;5150132;28;20034;-60
2023/01/27 07:39:58;;;;;;;12.82;7.43;;;0.10;99.90;;;;;;5148945;28;20039;-61
2023/01/27 07:42:32;;;;;;;14.73;7.10;;;0.10;99.90;;;;;;5111263;28;20295;-61
2023/01/27 07:45:03;;;;;;;21.25;9.18;;;0.10;99.90;;;;;;5117060;28;20045;-61
2023/01/27 07:47:35;;;;;;;25.92;11.52;;;0.10;99.90;;;;;;5135074;28;20046;-61
2023/01/27 07:50:07;;;;;;;18.60;9.38;;;0.10;99.90;;;;;;5137669;28;20469;-61
2023/01/27 07:52:40;;;;;;;12.30;6.85;;;0.10;99.90;;;;;;5120789;28;20042;-60
2023/01/27 07:55:14;;;;;;;12.80;6.45;;;0.20;99.90;;;;;;5134038;28;20042;-61
2023/01/27 07:57:45;;;;;;;13.82;8.13;;;0.20;99.90;;;;;;5119963;28;20026;-61
2023/01/27 08:00:16;;;;;;;13.35;6.50;;;0.20;99.90;;;;;;5118356;28;20030;-62
2023/01/27 08:02:51;;;;;;;11.15;6.53;;;0.20;99.90;;;;;;5140474;28;20044;-61
2023/01/27 08:05:29;;;;;;;16.63;7.93;;;0.20;99.90;;;;;;5120671;28;20662;-60
2023/01/27 08:08:03;;;;;;;12.80;7.30;;;0.20;99.90;;;;;;5129188;28;20027;-61
2023/01/27 08:10:36;;;;;;;14.15;6.90;;;0.30;99.90;;;;;;5133556;28;20585;-60
2023/01/27 08:13:10;;;;;;;14.98;7.82;;;0.20;99.90;;;;;;5131540;28;20066;-58
2023/01/27 08:15:41;;;;;;;13.48;8.15;;;0.30;99.90;;;;;;5130588;28;20045;-60
2023/01/27 08:18:13;;;;;;;11.48;7.03;;;0.20;99.90;;;;;;5134214;28;20039;-63
2023/01/27 08:20:44;;;;;;;12.63;6.78;;;0.20;99.90;;;;;;5132065;28;20034;-61
2023/01/27 08:23:22;;;;;;;12.68;6.88;;;0.20;99.90;;;;;;5101145;28;20069;-61
2023/01/27 08:25:59;;;;;;;16.75;6.82;;;0.20;99.90;;;;;;5116365;28;20046;-60
2023/01/27 08:28:32;;;;;;;14.50;7.20;;;0.30;99.90;;;;;;5132637;28;20030;-60
2023/01/27 08:31:09;;;;;;;11.13;6.47;;;0.30;99.90;;;;;;5119180;28;20109;-62
2023/01/27 08:33:44;;;;;;;11.68;6.68;;;0.30;99.90;;;;;;5112795;28;20036;-62
2023/01/27 08:36:21;;;;;;;12.45;7.03;;;0.30;99.90;;;;;;5107538;28;20251;-62
2023/01/27 08:38:52;;;;;;;10.40;6.55;;;0.30;99.90;;;;;;5116248;28;20049;-61
2023/01/27 08:41:27;;;;;;;13.48;7.75;;;0.30;99.90;;;;;;5118564;28;20046;-62
2023/01/27 08:43:59;;;;;;;12.80;7.28;;;0.30;99.90;;;;;;5115372;28;20029;-60
2023/01/27 08:46:31;;;;;;;15.50;7.65;;;0.40;99.90;;;;;;5130972;28;20039;-61
2023/01/27 08:49:02;;;;;;;12.50;7.43;;;0.40;99.90;;;;;;5146015;28;20034;-63
2023/01/27 08:51:33;;;;;;;14.55;7.13;;;0.40;99.90;;;;;;5141416;28;20034;-63
2023/01/27 08:54:05;;;;;;;18.88;8.27;;;0.40;99.90;;;;;;5134760;28;20036;-62
2023/01/27 08:56:37;;;;;;;14.88;6.85;;;0.30;99.90;;;;;;5135245;28;20339;-61
2023/01/27 08:59:08;;;;;;;16.02;7.47;;;0.30;99.90;;;;;;5129047;28;20026;-61
2023/01/27 09:01:40;;;;;;;14.23;8.23;;;0.40;99.90;;;;;;5127884;28;20038;-61
2023/01/27 09:04:11;;;;;;;17.73;8.90;;;0.40;99.90;;;;;;5120959;28;20043;-61
2023/01/27 09:06:44;;;;;;;12.57;6.45;;;0.50;99.90;;;;;;5107932;28;20037;-60
2023/01/27 09:09:15;;;;;;;16.80;8.20;;;0.50;99.90;;;;;;5105555;28;20035;-61
2023/01/27 09:11:46;;;;;;;15.23;7.05;;;0.50;99.90;;;;;;5140301;28;20030;-62
2023/01/27 09:14:19;;;;;;;14.45;7.57;;;0.50;99.90;;;;;;5127075;28;20038;-61
2023/01/27 09:16:50;;;;;;;17.80;7.80;;;0.60;99.90;;;;;;5120086;28;20408;-61
2023/01/27 09:19:21;;;;;;;14.30;6.97;;;0.60;99.90;;;;;;5125717;28;20319;-63
2023/01/27 09:21:52;;;;;;;13.07;6.95;;;0.60;99.90;;;;;;5126445;28;20041;-62
2023/01/27 09:24:23;;;;;;;14.63;8.23;;;0.70;99.90;;;;;;5120202;28;20044;-62
2023/01/27 09:26:55;;;;;;;16.42;8.55;;;0.70;99.90;;;;;;5147726;28;20044;-61
2023/01/27 09:29:26;;;;;;;20.15;8.73;;;0.60;99.90;;;;;;5132782;28;20034;-61
2023/01/27 09:31:57;;;;;;;17.38;8.18;;;0.60;99.90;;;;;;5123697;28;20337;-62
2023/01/27 09:34:29;;;;;;;15.50;7.85;;;0.70;99.90;;;;;;5134074;28;20029;-63
2023/01/27 09:37:11;;;;;;;23.73;8.98;;;0.70;99.90;;;;;;5114300;28;20053;-61
2023/01/27 09:39:48;;;;;;;14.73;7.38;;;0.70;99.90;;;;;;5128942;28;20038;-61
2023/01/27 09:42:41;;;;;;;15.15;7.65;;;0.70;99.90;;;;;;5150494;28;20359;-62
2023/01/27 09:45:55;;;;;;;18.90;8.52;;;0.70;99.90;;;;;;5128155;28;20026;-62
2023/01/27 09:48:32;;;;;;;14.68;8.25;;;0.70;99.90;;;;;;5112860;28;20049;-62
2023/01/27 09:51:20;;;;;;;17.27;8.60;;;0.90;99.90;;;;;;5150781;28;20048;-61
2023/01/27 09:54:15;;;;;;;12.82;7.65;;;1.00;99.90;;;;;;5147866;28;20030;-61
2023/01/27 09:57:05;;;;;;;16.13;9.48;;;1.00;99.90;;;;;;5097538;28;20041;-63
2023/01/27 09:59:36;;;;;;;17.40;8.50;;;0.70;99.90;;;;;;5106313;28;20054;-61
2023/01/27 10:02:08;;;;;;;19.90;9.35;;;0.70;99.90;;;;;;5057831;28;20039;-62
2023/01/27 10:05:03;;;;;;;17.00;9.35;;;0.70;99.90;;;;;;5113857;28;21234;-61
2023/01/27 10:08:07;;;;;;;18.42;9.13;;;0.60;99.90;;;;;;5137238;28;20407;-62
2023/01/27 10:11:03;;;;;;;22.27;9.43;;;0.50;99.90;;;;;;5130387;28;20053;-62
2023/01/27 10:13:53;;;;;;;21.88;10.15;;;0.60;99.90;;;;;;5129750;28;20007;-64
2023/01/27 10:17:15;;;;;;;19.67;9.02;;;0.70;99.90;;;;;;5127432;28;20026;-61
2023/01/27 10:20:03;;;;;;;15.18;8.35;;;0.70;99.90;;;;;;5093487;29;20031;-64
2023/01/27 10:23:11;;;;;;;15.63;9.10;;;0.70;99.90;;;;;;5106504;29;20226;-63
2023/01/27 10:26:02;;;;;;;16.10;9.25;;;0.70;99.90;;;;;;5068705;29;20035;-63
2023/01/27 10:28:36;;;;;;;15.68;9.02;;;0.70;99.90;;;;;;5095288;28;20047;-64
2023/01/27 10:31:10;;;;;;;;;;;0.80;99.90;;;;;;5089513;29;20035;-63
2023/01/27 10:33:50;;;;;;;17.40;8.98;;;0.70;99.90;;;;;;5108130;28;19966;-63
2023/01/27 10:36:30;;;;;;;19.40;9.85;;;0.80;99.90;;;;;;5107488;29;20054;-64
2023/01/27 10:39:15;;;;;;;18.20;9.60;;;0.90;99.90;;;;;;5111338;28;20034;-65
2023/01/27 10:41:51;;;;;;;;;;;1.00;99.90;;;;;;5080565;28;20413;-64
2023/01/27 10:44:52;;;;;;;17.75;8.13;;;1.00;99.90;;;;;;5071068;28;21220;-63
2023/01/27 10:47:50;;;;;;;15.80;8.27;;;1.00;99.90;;;;;;5076221;28;20114;-64
2023/01/27 10:50:29;;;;;;;18.92;8.75;;;0.90;99.90;;;;;;5106327;28;20038;-64
2023/01/27 10:53:09;;;;;;;18.77;9.55;;;0.90;99.90;;;;;;5121526;28;20034;-64
2023/01/27 10:56:31;;;;;;;17.70;8.43;;;0.80;99.90;;;;;;5119257;28;20030;-65
2023/01/27 10:59:25;;;;;;;19.27;9.18;;;0.90;99.90;;;;;;5074698;29;20035;-64
2023/01/27 11:02:09;;;;;;;15.53;8.43;;;0.70;99.90;;;;;;5056685;29;20282;-63
2023/01/27 11:04:56;;;;;;;20.02;9.45;;;0.70;99.90;;;;;;5066390;29;20459;-64
2023/01/27 11:07:30;;;;;;;16.92;9.50;;;0.70;99.90;;;;;;5087748;29;20054;-62
2023/01/27 11:10:12;;;;;;;21.67;10.73;;;0.70;99.90;;;;;;5072315;29;20036;-64
2023/01/27 11:12:48;;;;;;;17.77;9.25;;;0.80;99.90;;;;;;5070067;29;20320;-63
2023/01/27 11:15:32;;;;;;;19.38;9.75;;;0.90;99.90;;;;;;5084671;29;20036;-64
2023/01/27 11:18:10;;;;;;;18.65;9.43;;;0.90;99.90;;;;;;5055940;29;20054;-63
2023/01/27 11:20:55;;;;;;;20.67;9.65;;;0.90;99.90;;;;;;5072014;29;20236;-63
2023/01/27 11:23:34;;;;;;;16.90;9.40;;;0.80;99.90;;;;;;5055245;29;20032;-63
2023/01/27 11:26:11;;;;;;;21.13;10.02;;;0.80;99.90;;;;;;5065331;29;20044;-64
2023/01/27 11:29:27;;;;;;;22.98;9.30;;;0.70;99.90;;;;;;5080314;29;20043;-65
2023/01/27 11:32:07;;;;;;;23.67;11.05;;;0.70;99.90;;;;;;5049436;28;20043;-63
2023/01/27 11:35:12;;;;;;;18.65;9.32;;;0.60;99.90;;;;;;5114487;28;20046;-64
2023/01/27 11:37:49;;;;;;;20.50;9.75;;;0.60;99.90;;;;;;5063964;29;20051;-64
2023/01/27 11:40:28;;;;;;;19.05;9.77;;;0.60;99.90;;;;;;5074278;29;20248;-64
2023/01/27 11:43:03;;;;;;;18.15;9.32;;;0.70;99.90;;;;;;5073481;29;20035;-63
2023/01/27 11:45:36;;;;;;;16.50;9.23;;;0.70;99.90;;;;;;5065350;29;20054;-64
2023/01/27 11:48:13;;;;;;;18.95;9.68;;;0.60;99.90;;;;;;5081097;29;20051;-63
2023/01/27 11:50:45;;;;;;;20.77;9.90;;;0.60;99.90;;;;;;5073822;29;20043;-64
2023/01/27 11:53:25;;;;;;;21.35;9.23;;;0.70;99.90;;;;;;5059567;29;20639;-66
2023/01/27 11:56:05;;;;;;;22.35;8.98;;;0.70;99.90;;;;;;5066083;29;20320;-62
2023/01/27 11:58:46;;;;;;;19.73;9.85;;;0.80;99.90;;;;;;5072604;29;20035;-64
2023/01/27 12:01:22;;;;;;;22.60;9.10;;;0.80;99.90;;;;;;5060700;29;20039;-65
2023/01/27 12:04:03;;;;;;;20.63;8.63;;;0.80;99.90;;;;;;5061267;29;20271;-64
2023/01/27 12:06:51;;;;;;;20.92;9.80;;;0.80;99.90;;;;;;5077025;29;20051;-64
2023/01/27 12:09:37;;;;;;;27.77;9.05;;;0.80;99.90;;;;;;5071826;29;20038;-63
2023/01/27 12:12:12;;;;;;;17.27;8.48;;;0.90;99.90;;;;;;5084462;28;20036;-64
2023/01/27 12:14:52;;;;;;;22.70;9.00;;;0.80;99.90;;;;;;5158518;28;20309;-64
2023/01/27 12:17:36;;;;;;;17.02;7.80;;;0.70;99.90;;;;;;5148677;28;20424;-63
2023/01/27 12:20:23;;;;;;;16.48;9.40;;;0.70;99.90;;;;;;5152135;28;20034;-63
2023/01/27 12:23:26;;;;;;;17.92;8.43;;;0.60;99.90;;;;;;5135060;28;20204;-64
2023/01/27 12:26:03;;;;;;;21.17;10.35;;;0.60;99.90;;;;;;5087184;29;20342;-65
2023/01/27 12:28:40;;;;;;;17.02;8.98;;;0.50;99.90;;;;;;5094566;29;20251;-64
2023/01/27 12:31:17;;;;;;;17.70;10.25;;;0.40;99.90;;;;;;5104673;29;20178;-64
2023/01/27 12:34:00;;;;;;;19.27;8.68;;;0.40;99.90;;;;;;5073203;29;20326;-66
2023/01/27 12:36:41;;;;;;;18.20;8.80;;;0.40;99.90;;;;;;5058408;29;20360;-64
2023/01/27 12:39:26;;;;;;;20.08;9.65;;;0.40;99.90;;;;;;5088678;29;20039;-64
2023/01/27 12:41:57;;;;;;;15.82;8.10;;;0.40;99.90;;;;;;5060018;29;20452;-63
2023/01/27 12:44:44;;;;;;;21.42;10.80;;;0.50;99.90;;;;;;5103642;29;20039;-64
2023/01/27 12:47:27;;;;;;;24.60;10.55;;;0.50;99.90;;;;;;5066127;29;20340;-65
2023/01/27 12:50:35;;;;;;;20.40;9.50;;;0.50;99.90;;;;;;5067503;29;20046;-65
2023/01/27 12:53:32;;;;;;;18.20;9.18;;;0.60;99.90;;;;;;5066195;29;20292;-64
2023/01/27 12:56:06;;;;;;;16.63;9.05;;;0.60;99.90;;;;;;5067936;29;20508;-65
2023/01/27 12:58:58;;;;;;;15.73;9.00;;;0.60;99.90;;;;;;5068614;29;20044;-64
2023/01/27 13:01:40;;;;;;;19.80;10.57;;;0.60;99.90;;;;;;5090042;28;20322;-64
2023/01/27 13:04:24;;;;;;;21.60;9.70;;;0.70;99.90;;;;;;5082494;29;20050;-64
2023/01/27 13:07:00;;;;;;;22.45;10.18;;;0.70;99.90;;;;;;5109109;29;20049;-65
2023/01/27 13:09:52;;;;;;;19.95;10.65;;;0.70;99.90;;;;;;5072433;28;21125;-65
2023/01/27 13:12:32;;;;;;;21.98;10.40;;;0.60;99.90;;;;;;5067689;29;20047;-64
2023/01/27 13:15:14;;;;;;;21.70;11.60;;;0.60;99.90;;;;;;5092402;29;20043;-65
2023/01/27 13:17:52;;;;;;;20.75;10.40;;;0.60;99.90;;;;;;5092717;29;20039;-64
2023/01/27 13:20:39;;;;;;;17.83;9.50;;;0.70;99.90;;;;;;5083574;28;20559;-64
2023/01/27 13:23:14;;;;;;;16.55;9.13;;;0.70;99.90;;;;;;5128082;28;20348;-65
2023/01/27 13:26:11;;;;;;;21.88;9.80;;;0.70;99.90;;;;;;5113341;28;20221;-64
2023/01/27 13:28:57;;;;;;;22.25;9.80;;;0.70;99.90;;;;;;5147289;28;20031;-64
2023/01/27 13:32:00;;;;;;;21.30;11.02;;;0.60;99.90;;;;;;5136115;28;20284;-64
2023/01/27 13:34:47;;;;;;;22.70;10.43;;;0.70;99.90;;;;;;5148789;28;20340;-65
2023/01/27 13:37:41;;;;;;;20.27;10.43;;;0.70;99.90;;;;;;5115951;28;20417;-65
2023/01/27 13:40:28;;;;;;;;;;;0.70;99.90;;;;;;5130731;28;20317;-63
2023/01/27 13:43:22;;;;;;;16.27;8.55;;;0.60;99.90;;;;;;5130858;28;20443;-63
2023/01/27 13:46:11;;;;;;;17.17;8.13;;;0.60;99.90;;;;;;5128412;28;20273;-64
2023/01/27 13:48:53;;;;;;;17.23;9.07;;;0.70;99.90;;;;;;5134375;28;20390;-63
2023/01/27 13:51:28;;;;;;;16.48;8.65;;;0.60;99.90;;;;;;5110439;28;20052;-65
2023/01/27 13:54:02;;;;;;;17.83;9.45;;;0.70;99.90;;;;;;5112265;28;20026;-64
2023/01/27 13:57:16;;;;;;;17.48;9.27;;;0.70;99.90;;;;;;5147175;28;20061;-65
2023/01/27 14:00:20;;;;;;;19.50;9.02;;;0.70;99.90;;;;;;5056406;29;20364;-65
2023/01/27 14:03:37;;;;;;;18.70;10.40;;;0.60;99.90;;;;;;5130536;28;20497;-63
2023/01/27 14:06:20;;;;;;;17.60;9.07;;;0.50;99.90;;;;;;5114926;28;20054;-64
2023/01/27 14:09:10;;;;;;;21.35;10.05;;;0.50;99.90;;;;;;5124885;28;20323;-64
2023/01/27 14:11:56;;;;;;;20.38;10.40;;;0.50;99.90;;;;;;5149906;28;20042;-63
2023/01/27 14:14:39;;;;;;;20.02;9.65;;;0.40;99.90;;;;;;5112285;28;20058;-64